createdAt,value
2023-02-05T00:01:22.738Z,87.41
2023-02-05T00:03:49.668Z,87.57
2023-02-05T00:06:16.243Z,88.29
2023-02-05T00:08:42.842Z,88.74
2023-02-05T00:11:09.775Z,88.48
2023-02-05T00:13:37.972Z,88.73
2023-02-05T00:16:16.142Z,88.96
2023-02-05T00:18:43.092Z,88.33
2023-02-05T00:21:10.602Z,88.92
2023-02-05T00:23:37.811Z,88.88
2023-02-05T00:26:05.453Z,88.95
2023-02-05T00:28:33.301Z,89.47
2023-02-05T00:31:00.359Z,89.96
2023-02-05T00:33:26.915Z,89.71
2023-02-05T00:35:53.468Z,89.28
2023-02-05T00:38:19.855Z,89.51
2023-02-05T00:40:46.242Z,89.29
2023-02-05T00:43:12.576Z,89.24
2023-02-05T00:45:39.080Z,89.05
2023-02-05T00:48:05.671Z,88.84
2023-02-05T00:50:33.734Z,88.95
2023-02-05T00:53:00.208Z,89.59
2023-02-05T00:55:26.841Z,90.12
2023-02-05T00:57:53.280Z,90.26
2023-02-05T01:00:19.964Z,90.37
2023-02-05T01:02:46.666Z,91.33
2023-02-05T01:05:13.248Z,92.35
2023-02-05T01:07:39.912Z,92.09
2023-02-05T01:10:06.848Z,92.31
2023-02-05T01:12:33.431Z,92.28
2023-02-05T01:15:07.024Z,92.30
2023-02-05T01:17:33.785Z,92.87
2023-02-05T01:20:00.294Z,93.01
2023-02-05T01:22:26.773Z,93.34
2023-02-05T01:24:53.170Z,93.56
2023-02-05T01:27:19.561Z,94.09
2023-02-05T01:29:46.054Z,94.09
2023-02-05T01:32:12.528Z,94.34
2023-02-05T01:34:39.096Z,94.83
2023-02-05T01:37:05.463Z,95.37
2023-02-05T01:39:31.897Z,95.41
2023-02-05T01:41:58.567Z,95.87
2023-02-05T01:44:25.046Z,96.14
2023-02-05T01:46:53.801Z,96.16
2023-02-05T01:49:31.586Z,96.16
2023-02-05T01:52:03.235Z,95.81
2023-02-05T01:54:31.870Z,96.01
2023-02-05T01:57:04.841Z,96.62
2023-02-05T01:59:36.079Z,96.26
2023-02-05T02:02:06.450Z,96.26
2023-02-05T02:04:43.606Z,96.50
2023-02-05T02:07:13.764Z,96.62
2023-02-05T02:09:42.053Z,97.04
2023-02-05T02:12:11.035Z,97.59
2023-02-05T02:14:39.818Z,97.86
2023-02-05T02:17:07.681Z,98.57
2023-02-05T02:19:46.196Z,99.35
2023-02-05T02:22:24.807Z,99.93
2023-02-05T02:25:04.990Z,99.53
2023-02-05T02:27:49.505Z,100.00
2023-02-05T02:30:20.312Z,100.00
2023-02-05T02:32:54.244Z,100.00
2023-02-05T02:35:32.513Z,100.00
2023-02-05T02:38:14.167Z,100.00
2023-02-05T02:40:45.752Z,100.00
2023-02-05T02:43:44.198Z,100.00
2023-02-05T02:46:19.632Z,100.00
2023-02-05T02:48:47.912Z,100.00
2023-02-05T02:51:16.564Z,100.00
2023-02-05T02:53:47.513Z,100.00
2023-02-05T02:56:15.923Z,100.00
2023-02-05T02:58:58.600Z,100.00
2023-02-05T03:01:32.576Z,100.00
2023-02-05T03:04:05.089Z,100.00
2023-02-05T03:06:33.460Z,100.00
2023-02-05T03:09:06.014Z,100.00
2023-02-05T03:11:32.441Z,100.00
2023-02-05T03:13:58.919Z,100.00
2023-02-05T03:16:27.130Z,100.00
2023-02-05T03:18:55.072Z,100.00
2023-02-05T03:21:28.296Z,100.00
2023-02-05T03:23:54.837Z,100.00
2023-02-05T03:26:29.605Z,100.00
2023-02-05T03:28:58.632Z,100.00
2023-02-05T03:31:52.115Z,100.00
2023-02-05T03:34:45.708Z,100.00
2023-02-05T03:37:37.987Z,100.00
2023-02-05T03:40:15.645Z,100.00
2023-02-05T03:42:55.108Z,100.00
2023-02-05T03:45:41.105Z,100.00
2023-02-05T03:48:44.959Z,100.00
2023-02-05T03:51:29.653Z,100.00
2023-02-05T03:54:20.797Z,100.00
2023-02-05T03:56:53.687Z,100.00
2023-02-05T03:59:21.944Z,100.00
2023-02-05T04:01:48.905Z,100.00
2023-02-05T04:04:15.387Z,100.00
2023-02-05T04:06:42.267Z,100.00
2023-02-05T04:09:10.956Z,100.00
2023-02-05T04:11:38.496Z,100.00
2023-02-05T04:14:05.012Z,100.00
2023-02-05T04:16:31.506Z,100.00
2023-02-05T04:18:57.908Z,100.00
2023-02-05T04:21:24.299Z,100.00
2023-02-05T04:23:50.789Z,100.00
2023-02-05T04:26:17.246Z,100.00
2023-02-05T04:28:43.809Z,100.00
2023-02-05T04:31:15.356Z,100.00
2023-02-05T04:33:42.252Z,100.00
2023-02-05T04:36:09.277Z,100.00
2023-02-05T04:38:35.674Z,100.00
2023-02-05T04:41:02.073Z,100.00
2023-02-05T04:43:28.719Z,100.00
2023-02-05T04:45:55.239Z,100.00
2023-02-05T04:48:21.778Z,100.00
2023-02-05T04:50:48.284Z,100.00
2023-02-05T04:53:14.758Z,100.00
2023-02-05T04:55:41.200Z,100.00
2023-02-05T04:58:07.809Z,100.00
2023-02-05T05:00:34.197Z,100.00
2023-02-05T05:03:01.484Z,100.00
2023-02-05T05:05:28.005Z,100.00
2023-02-05T05:07:54.441Z,100.00
2023-02-05T05:10:20.809Z,100.00
2023-02-05T05:12:47.175Z,100.00
2023-02-05T05:15:13.675Z,100.00
2023-02-05T05:17:40.061Z,100.00
2023-02-05T05:20:06.747Z,100.00
2023-02-05T05:22:33.629Z,100.00
2023-02-05T05:25:00.142Z,100.00
2023-02-05T05:27:26.574Z,100.00
2023-02-05T05:29:53.068Z,100.00
2023-02-05T05:32:19.546Z,100.00
2023-02-05T05:34:45.953Z,100.00
2023-02-05T05:37:12.446Z,100.00
2023-02-05T05:39:57.440Z,100.00
2023-02-05T05:42:42.739Z,100.00
2023-02-05T05:45:10.563Z,100.00
2023-02-05T05:47:37.051Z,100.00
2023-02-05T05:50:03.910Z,100.00
2023-02-05T05:52:32.380Z,100.00
2023-02-05T05:54:59.148Z,100.00
2023-02-05T05:57:26.204Z,100.00
2023-02-05T05:59:52.653Z,100.00
2023-02-05T06:02:19.177Z,100.00
2023-02-05T06:04:45.976Z,100.00
2023-02-05T06:07:12.399Z,100.00
2023-02-05T06:09:38.796Z,100.00
2023-02-05T06:12:05.392Z,100.00
2023-02-05T06:14:31.939Z,100.00
2023-02-05T06:16:58.425Z,100.00
2023-02-05T06:19:25.084Z,100.00
2023-02-05T06:21:51.573Z,100.00
2023-02-05T06:24:18.009Z,100.00
2023-02-05T06:26:44.630Z,100.00
2023-02-05T06:29:11.102Z,100.00
2023-02-05T06:31:37.545Z,100.00
2023-02-05T06:34:04.117Z,100.00
2023-02-05T06:36:30.515Z,100.00
2023-02-05T06:38:56.944Z,100.00
2023-02-05T06:41:23.429Z,100.00
2023-02-05T06:43:49.892Z,100.00
2023-02-05T06:46:16.395Z,100.00
2023-02-05T06:48:42.905Z,100.00
2023-02-05T06:51:09.309Z,100.00
2023-02-05T06:53:35.686Z,100.00
2023-02-05T06:56:02.152Z,100.00
2023-02-05T06:58:28.592Z,100.00
2023-02-05T07:00:55.034Z,100.00
2023-02-05T07:03:21.622Z,100.00
2023-02-05T07:05:47.957Z,100.00
2023-02-05T07:08:14.330Z,100.00
2023-02-05T07:10:40.792Z,100.00
2023-02-05T07:13:07.218Z,100.00
2023-02-05T07:15:36.911Z,100.00
2023-02-05T07:18:05.116Z,100.00
2023-02-05T07:20:32.230Z,100.00
2023-02-05T07:22:58.638Z,100.00
2023-02-05T07:25:25.270Z,100.00
2023-02-05T07:27:51.684Z,100.00
2023-02-05T07:30:18.376Z,100.00
2023-02-05T07:32:44.930Z,100.00
2023-02-05T07:35:11.329Z,100.00
2023-02-05T07:37:39.344Z,100.00
2023-02-05T07:40:06.358Z,100.00
2023-02-05T07:42:32.711Z,100.00
2023-02-05T07:44:59.084Z,100.00
2023-02-05T07:47:25.503Z,100.00
2023-02-05T07:49:51.883Z,100.00
2023-02-05T07:52:18.348Z,100.00
2023-02-05T07:54:44.818Z,100.00
2023-02-05T07:57:11.241Z,100.00
2023-02-05T07:59:37.826Z,100.00
2023-02-05T08:02:04.456Z,100.00
2023-02-05T08:04:31.096Z,100.00
2023-02-05T08:06:57.615Z,100.00
2023-02-05T08:09:24.054Z,100.00
2023-02-05T08:11:50.444Z,100.00
2023-02-05T08:14:16.844Z,100.00
2023-02-05T08:16:43.280Z,100.00
2023-02-05T08:19:15.626Z,100.00
2023-02-05T08:21:43.250Z,100.00
2023-02-05T08:24:10.445Z,100.00
2023-02-05T08:26:36.874Z,100.00
2023-02-05T08:29:03.491Z,100.00
2023-02-05T08:31:30.025Z,100.00
2023-02-05T08:33:57.770Z,100.00
2023-02-05T08:36:24.340Z,100.00
2023-02-05T08:38:50.717Z,100.00
2023-02-05T08:41:17.636Z,100.00
2023-02-05T08:43:47.107Z,100.00
2023-02-05T08:46:15.390Z,100.00
2023-02-05T08:48:42.175Z,100.00
2023-02-05T08:51:13.129Z,100.00
2023-02-05T08:53:40.506Z,100.00
2023-02-05T08:56:10.508Z,100.00
2023-02-05T08:58:38.568Z,100.00
2023-02-05T09:01:08.833Z,100.00
2023-02-05T09:03:35.390Z,100.00
2023-02-05T09:06:05.852Z,100.00
2023-02-05T09:08:32.396Z,100.00
2023-02-05T09:10:58.782Z,100.00
2023-02-05T09:13:25.860Z,100.00
2023-02-05T09:15:52.396Z,100.00
2023-02-05T09:18:18.924Z,100.00
2023-02-05T09:20:47.987Z,100.00
2023-02-05T09:23:16.676Z,100.00
2023-02-05T09:25:43.354Z,100.00
2023-02-05T09:28:11.965Z,100.00
2023-02-05T09:30:41.010Z,100.00
2023-02-05T09:33:08.665Z,100.00
2023-02-05T09:35:36.070Z,100.00
2023-02-05T09:38:03.406Z,100.00
2023-02-05T09:40:35.927Z,100.00
2023-02-05T09:43:21.483Z,100.00
2023-02-05T09:46:03.134Z,100.00
2023-02-05T09:48:49.694Z,100.00
2023-02-05T09:51:19.247Z,100.00
2023-02-05T09:53:52.839Z,100.00
2023-02-05T09:56:20.048Z,100.00
2023-02-05T09:58:49.733Z,100.00
2023-02-05T10:01:39.251Z,100.00
2023-02-05T10:04:08.846Z,100.00
2023-02-05T10:07:04.753Z,100.00
2023-02-05T10:09:59.813Z,100.00
2023-02-05T10:13:08.492Z,100.00
2023-02-05T10:15:53.489Z,100.00
2023-02-05T10:18:49.243Z,100.00
2023-02-05T10:21:58.414Z,100.00
2023-02-05T10:24:42.136Z,100.00
2023-02-05T10:27:24.870Z,100.00
2023-02-05T10:30:24.705Z,100.00
2023-02-05T10:33:00.212Z,100.00
2023-02-05T10:35:37.108Z,100.00
2023-02-05T10:38:13.537Z,100.00
2023-02-05T10:40:46.605Z,100.00
2023-02-05T10:43:15.972Z,100.00
2023-02-05T10:45:42.441Z,100.00
2023-02-05T10:48:33.303Z,100.00
2023-02-05T10:51:13.974Z,100.00
2023-02-05T10:53:40.994Z,100.00
2023-02-05T10:56:08.978Z,100.00
2023-02-05T10:58:51.765Z,100.00
2023-02-05T11:01:25.155Z,100.00
2023-02-05T11:04:09.887Z,100.00
2023-02-05T11:06:49.298Z,100.00
2023-02-05T11:09:24.617Z,100.00
2023-02-05T11:11:56.672Z,100.00
2023-02-05T11:14:31.912Z,100.00
2023-02-05T11:17:07.454Z,100.00
2023-02-05T11:19:34.043Z,100.00
2023-02-05T11:22:03.474Z,100.00
2023-02-05T11:24:41.351Z,100.00
2023-02-05T11:27:26.944Z,100.00
2023-02-05T11:29:55.658Z,100.00
2023-02-05T11:32:32.536Z,100.00
2023-02-05T11:35:16.259Z,100.00
2023-02-05T11:37:43.263Z,100.00
2023-02-05T11:40:21.535Z,100.00
2023-02-05T11:42:55.595Z,100.00
2023-02-05T11:45:23.167Z,100.00
2023-02-05T11:47:49.580Z,100.00
2023-02-05T11:50:24.604Z,100.00
2023-02-05T11:52:52.732Z,100.00
2023-02-05T11:55:31.948Z,100.00
2023-02-05T11:58:31.390Z,100.00
2023-02-05T12:01:05.751Z,100.00
2023-02-05T12:03:34.508Z,100.00
2023-02-05T12:06:28.916Z,100.00
2023-02-05T12:08:55.611Z,100.00
2023-02-05T12:14:39.787Z,100.00
2023-02-05T12:17:18.307Z,100.00
2023-02-05T12:20:26.469Z,100.00
2023-02-05T12:23:06.898Z,100.00
2023-02-05T12:25:55.098Z,100.00
2023-02-05T12:28:36.861Z,100.00
2023-02-05T12:31:27.236Z,100.00
2023-02-05T12:34:16.813Z,100.00
2023-02-05T12:37:01.863Z,100.00
2023-02-05T12:39:53.441Z,100.00
2023-02-05T12:42:32.336Z,100.00
2023-02-05T12:45:17.626Z,100.00
2023-02-05T12:47:57.099Z,100.00
2023-02-05T12:50:35.468Z,100.00
2023-02-05T12:53:12.265Z,100.00
2023-02-05T12:56:21.252Z,100.00
2023-02-05T12:58:57.261Z,100.00
2023-02-05T13:01:53.240Z,100.00
2023-02-05T13:04:36.305Z,100.00
2023-02-05T13:07:14.936Z,100.00
2023-02-05T13:09:49.863Z,100.00
2023-02-05T13:12:20.122Z,100.00
2023-02-05T13:15:02.642Z,100.00
2023-02-05T13:17:34.105Z,100.00
2023-02-05T13:20:04.277Z,100.00
2023-02-05T13:22:56.298Z,100.00
2023-02-05T13:25:54.597Z,100.00
2023-02-05T13:28:42.964Z,100.00
2023-02-05T13:31:15.249Z,100.00
2023-02-05T13:33:43.543Z,100.00
2023-02-05T13:36:29.950Z,100.00
2023-02-05T13:39:41.220Z,100.00
2023-02-05T13:42:45.048Z,100.00
2023-02-05T13:45:23.676Z,100.00
2023-02-05T13:47:53.073Z,100.00
2023-02-05T13:50:47.407Z,100.00
2023-02-05T13:53:43.955Z,100.00
2023-02-05T13:56:31.973Z,100.00
2023-02-05T13:59:02.670Z,100.00
2023-02-05T14:01:36.115Z,100.00
2023-02-05T14:04:07.781Z,100.00
2023-02-05T14:06:39.750Z,100.00
2023-02-05T14:09:23.563Z,100.00
2023-02-05T14:11:57.025Z,100.00
2023-02-05T14:14:35.626Z,100.00
2023-02-05T14:17:33.171Z,100.00
2023-02-05T14:20:01.202Z,100.00
2023-02-05T14:22:42.103Z,100.00
2023-02-05T14:25:38.235Z,100.00
2023-02-05T14:28:16.842Z,100.00
2023-02-05T14:30:52.088Z,100.00
2023-02-05T14:33:27.722Z,100.00
2023-02-05T14:36:15.009Z,100.00
2023-02-05T14:39:03.931Z,100.00
2023-02-05T14:41:39.642Z,100.00
2023-02-05T14:44:17.790Z,100.00
2023-02-05T14:47:13.675Z,100.00
2023-02-05T14:49:43.745Z,100.00
2023-02-05T14:52:16.112Z,100.00
2023-02-05T14:54:47.587Z,100.00
2023-02-05T14:57:26.582Z,100.00
2023-02-05T14:59:58.786Z,100.00
2023-02-05T15:02:49.757Z,100.00
2023-02-05T15:05:22.068Z,100.00
2023-02-05T15:07:52.986Z,100.00
2023-02-05T15:10:27.142Z,100.00
2023-02-05T15:13:12.510Z,100.00
2023-02-05T15:15:39.127Z,100.00
2023-02-05T15:18:23.998Z,100.00
2023-02-05T15:20:53.233Z,100.00
2023-02-05T15:23:23.463Z,100.00
2023-02-05T15:25:58.140Z,100.00
2023-02-05T15:28:32.334Z,100.00
2023-02-05T15:31:08.385Z,100.00
2023-02-05T15:34:00.309Z,100.00
2023-02-05T15:36:52.396Z,100.00
2023-02-05T15:39:30.245Z,100.00
2023-02-05T15:42:00.123Z,100.00
2023-02-05T15:44:35.164Z,100.00
2023-02-05T15:47:05.308Z,100.00
2023-02-05T15:49:37.460Z,100.00
2023-02-05T15:52:05.680Z,100.00
2023-02-05T15:54:35.522Z,100.00
2023-02-05T15:57:05.324Z,100.00
2023-02-05T15:59:33.180Z,100.00
2023-02-05T16:02:04.059Z,100.00
2023-02-05T16:04:30.523Z,100.00
2023-02-05T16:06:57.735Z,100.00
2023-02-05T16:09:26.500Z,100.00
2023-02-05T16:11:53.141Z,100.00
2023-02-05T16:14:22.585Z,100.00
2023-02-05T16:17:02.440Z,100.00
2023-02-05T16:19:35.024Z,100.00
2023-02-05T16:22:22.748Z,100.00
2023-02-05T16:24:52.720Z,100.00
2023-02-05T16:27:35.948Z,100.00
2023-02-05T16:30:07.960Z,100.00
2023-02-05T16:32:43.990Z,100.00
2023-02-05T16:35:27.816Z,100.00
2023-02-05T16:37:55.165Z,100.00
2023-02-05T16:40:32.854Z,100.00
2023-02-05T16:42:59.629Z,100.00
2023-02-05T16:45:28.360Z,100.00
2023-02-05T16:48:18.744Z,100.00
2023-02-05T16:50:45.122Z,100.00
2023-02-05T16:53:21.048Z,100.00
2023-02-05T16:55:48.787Z,100.00
2023-02-05T16:58:23.105Z,100.00
2023-02-05T17:01:07.892Z,100.00
2023-02-05T17:03:38.698Z,100.00
2023-02-05T17:06:12.894Z,100.00
2023-02-05T17:08:40.327Z,100.00
2023-02-05T17:11:27.867Z,100.00
2023-02-05T17:14:28.448Z,100.00
2023-02-05T17:17:00.857Z,100.00
2023-02-05T17:19:29.779Z,100.00
2023-02-05T17:22:14.484Z,100.00
2023-02-05T17:24:44.268Z,100.00
2023-02-05T17:27:17.307Z,100.00
2023-02-05T17:29:44.166Z,100.00
2023-02-05T17:32:16.881Z,100.00
2023-02-05T17:34:46.903Z,100.00
2023-02-05T17:37:14.299Z,100.00
2023-02-05T17:39:41.312Z,100.00
2023-02-05T17:42:19.768Z,100.00
2023-02-05T17:44:46.163Z,100.00
2023-02-05T17:47:12.981Z,100.00
2023-02-05T17:49:39.971Z,100.00
2023-02-05T17:52:06.391Z,100.00
2023-02-05T17:54:32.801Z,100.00
2023-02-05T17:57:14.103Z,100.00
2023-02-05T17:59:42.933Z,100.00
2023-02-05T18:02:09.577Z,100.00
2023-02-05T18:04:36.053Z,100.00
2023-02-05T18:07:02.620Z,100.00
2023-02-05T18:09:29.088Z,100.00
2023-02-05T18:11:55.543Z,100.00
2023-02-05T18:14:22.075Z,100.00
2023-02-05T18:16:48.589Z,100.00
2023-02-05T18:19:15.116Z,100.00
2023-02-05T18:21:41.674Z,100.00
2023-02-05T18:24:08.204Z,99.84
2023-02-05T18:26:34.741Z,99.72
2023-02-05T18:29:01.216Z,99.65
2023-02-05T18:31:28.014Z,99.42
2023-02-05T18:33:54.439Z,99.45
2023-02-05T18:36:21.285Z,99.10
2023-02-05T18:38:47.968Z,98.76
2023-02-05T18:41:17.271Z,98.19
2023-02-05T18:43:44.220Z,98.53
2023-02-05T18:46:16.031Z,97.58
2023-02-05T18:48:45.605Z,97.56
2023-02-05T18:51:15.405Z,96.79
2023-02-05T18:53:43.176Z,96.77
2023-02-05T18:56:14.000Z,96.87
2023-02-05T18:58:41.751Z,96.25
2023-02-05T19:01:12.809Z,95.72
2023-02-05T19:03:41.310Z,95.69
2023-02-05T19:06:17.365Z,95.37
2023-02-05T19:08:44.056Z,95.26
2023-02-05T19:11:15.996Z,95.38
2023-02-05T19:13:42.628Z,95.13
2023-02-05T19:16:15.071Z,94.69
2023-02-05T19:18:43.901Z,94.44
2023-02-05T19:21:13.837Z,94.13
2023-02-05T19:23:41.268Z,94.15
2023-02-05T19:26:14.327Z,94.14
2023-02-05T19:28:41.635Z,94.00
2023-02-05T19:31:11.483Z,93.50
2023-02-05T19:33:38.475Z,93.52
2023-02-05T19:36:07.402Z,93.33
2023-02-05T19:38:41.268Z,93.12
2023-02-05T19:41:09.829Z,93.31
2023-02-05T19:43:36.378Z,93.14
2023-02-05T19:46:04.751Z,92.85
2023-02-05T19:48:31.433Z,92.95
2023-02-05T19:51:09.127Z,92.87
2023-02-05T19:53:37.867Z,92.55
2023-02-05T19:56:07.131Z,92.80
2023-02-05T19:58:34.702Z,92.56
2023-02-05T20:01:01.258Z,92.22
2023-02-05T20:03:28.849Z,92.52
2023-02-05T20:05:55.209Z,92.38
2023-02-05T20:08:21.667Z,92.49
2023-02-05T20:10:57.198Z,92.65
2023-02-05T20:13:27.793Z,92.56
2023-02-05T20:15:54.559Z,92.54
2023-02-05T20:18:21.869Z,92.48
2023-02-05T20:20:48.807Z,92.87
2023-02-05T20:23:15.391Z,92.49
2023-02-05T20:25:41.757Z,92.53
2023-02-05T20:28:08.336Z,92.82
2023-02-05T20:30:53.301Z,92.36
2023-02-05T20:33:19.890Z,92.44
2023-02-05T20:35:46.196Z,92.81
2023-02-05T20:38:12.561Z,92.33
2023-02-05T20:40:39.040Z,92.59
2023-02-05T20:43:09.062Z,92.31
2023-02-05T20:45:35.466Z,92.16
2023-02-05T20:48:02.057Z,91.56
2023-02-05T20:50:28.476Z,91.38
2023-02-05T20:52:54.783Z,91.42
2023-02-05T20:55:21.184Z,91.57
2023-02-05T20:57:47.537Z,91.22
2023-02-05T21:00:14.667Z,90.69
2023-02-05T21:02:41.147Z,90.74
2023-02-05T21:05:07.750Z,90.43
2023-02-05T21:07:34.938Z,89.92
2023-02-05T21:10:02.522Z,90.58
2023-02-05T21:12:31.050Z,90.41
2023-02-05T21:14:57.636Z,90.36
2023-02-05T21:17:23.992Z,90.50
2023-02-05T21:19:50.368Z,90.38
2023-02-05T21:22:16.810Z,89.95
2023-02-05T21:24:43.352Z,90.31
2023-02-05T21:27:09.751Z,89.97
2023-02-05T21:29:36.144Z,89.23
2023-02-05T21:32:02.792Z,89.33
2023-02-05T21:34:29.701Z,89.86
2023-02-05T21:36:56.516Z,90.08
2023-02-05T21:39:23.528Z,89.90
2023-02-05T21:41:53.918Z,90.09
2023-02-05T21:44:20.414Z,90.18
2023-02-05T21:46:46.906Z,89.09
2023-02-05T21:49:13.549Z,89.66
2023-02-05T21:51:42.246Z,90.03
2023-02-05T21:54:09.884Z,89.87
2023-02-05T21:56:43.266Z,90.21
2023-02-05T21:59:11.320Z,90.52
2023-02-05T22:01:38.247Z,90.21
2023-02-05T22:04:16.642Z,90.37
2023-02-05T22:06:43.445Z,90.36
2023-02-05T22:09:12.425Z,90.48
2023-02-05T22:11:42.623Z,90.17
2023-02-05T22:14:09.704Z,90.39
2023-02-05T22:16:37.149Z,90.73
2023-02-05T22:19:04.915Z,90.70
2023-02-05T22:21:37.449Z,90.37
2023-02-05T22:24:05.477Z,91.05
2023-02-05T22:26:35.906Z,91.16
2023-02-05T22:29:05.313Z,90.74
2023-02-05T22:31:32.609Z,91.06
2023-02-05T22:33:59.532Z,91.22
2023-02-05T22:36:28.469Z,91.03
2023-02-05T22:38:55.635Z,90.99
2023-02-05T22:41:25.062Z,91.21
2023-02-05T22:43:53.228Z,90.60
2023-02-05T22:46:23.089Z,90.57
2023-02-05T22:48:50.931Z,90.28
2023-02-05T22:51:23.416Z,90.74
2023-02-05T22:53:51.580Z,90.98
2023-02-05T22:56:18.699Z,90.73
2023-02-05T22:58:46.802Z,90.58
2023-02-05T23:01:16.087Z,90.51
2023-02-05T23:03:43.357Z,90.83
2023-02-05T23:06:12.484Z,90.64
2023-02-05T23:08:38.898Z,90.71
2023-02-05T23:11:11.205Z,90.65
2023-02-05T23:13:37.663Z,90.84
2023-02-05T23:16:32.531Z,91.07
2023-02-05T23:19:02.860Z,90.97
2023-02-05T23:21:31.970Z,91.17
2023-02-05T23:23:58.576Z,91.33
2023-02-05T23:26:28.002Z,91.04
2023-02-05T23:28:55.569Z,90.97
2023-02-05T23:31:23.961Z,91.38
2023-02-05T23:33:51.058Z,91.08
2023-02-05T23:36:18.067Z,91.44
2023-02-05T23:38:44.582Z,91.57
2023-02-05T23:41:12.169Z,91.75
2023-02-05T23:43:39.060Z,91.56
2023-02-05T23:46:07.095Z,91.52
2023-02-05T23:48:34.200Z,91.80
2023-02-05T23:51:01.034Z,91.83
2023-02-05T23:53:27.592Z,91.57
2023-02-05T23:55:55.648Z,91.86
2023-02-05T23:58:27.788Z,92.22
